sensor_id;sensor_type;location;lat;lon;timestamp;P1;durP1;ratioP1;P2;durP2;ratioP2
14789;SDS011;7486;51.010;10.366;2023-07-29T00:01:52;2.70;;;1.92;;
14789;SDS011;7486;51.010;10.366;2023-07-29T00:04:37;2.10;;;1.90;;
14789;SDS011;7486;51.010;10.366;2023-07-29T00:07:23;2.78;;;2.00;;
14789;SDS011;7486;51.010;10.366;2023-07-29T00:10:08;2.58;;;1.90;;
14789;SDS011;7486;51.010;10.366;2023-07-29T00:12:54;2.25;;;2.05;;
14789;SDS011;7486;51.010;10.366;2023-07-29T00:15:39;3.05;;;2.10;;
14789;SDS011;7486;51.010;10.366;2023-07-29T00:18:25;2.35;;;2.08;;
14789;SDS011;7486;51.010;10.366;2023-07-29T00:21:10;2.13;;;1.92;;
14789;SDS011;7486;51.010;10.366;2023-07-29T00:23:56;1.90;;;1.77;;
14789;SDS011;7486;51.010;10.366;2023-07-29T00:26:42;2.40;;;2.20;;
14789;SDS011;7486;51.010;10.366;2023-07-29T00:29:27;2.08;;;1.88;;
14789;SDS011;7486;51.010;10.366;2023-07-29T00:32:13;2.10;;;1.90;;
14789;SDS011;7486;51.010;10.366;2023-07-29T00:34:58;3.10;;;2.20;;
14789;SDS011;7486;51.010;10.366;2023-07-29T00:37:44;2.55;;;1.90;;
14789;SDS011;7486;51.010;10.366;2023-07-29T00:40:29;2.30;;;2.10;;
14789;SDS011;7486;51.010;10.366;2023-07-29T00:43:15;2.10;;;1.90;;
14789;SDS011;7486;51.010;10.366;2023-07-29T00:46:01;2.70;;;2.10;;
14789;SDS011;7486;51.010;10.366;2023-07-29T00:48:47;2.40;;;2.20;;
14789;SDS011;7486;51.010;10.366;2023-07-29T00:51:33;1.98;;;1.88;;
14789;SDS011;7486;51.010;10.366;2023-07-29T00:54:18;1.95;;;1.83;;
14789;SDS011;7486;51.010;10.366;2023-07-29T00:57:04;3.30;;;2.13;;
14789;SDS011;7486;51.010;10.366;2023-07-29T00:59:51;2.13;;;1.90;;
14789;SDS011;7486;51.010;10.366;2023-07-29T01:02:37;2.25;;;2.08;;
14789;SDS011;7486;51.010;10.366;2023-07-29T01:05:23;2.45;;;2.00;;
14789;SDS011;7486;51.010;10.366;2023-07-29T01:09:01;2.00;;;1.90;;
14789;SDS011;7486;51.010;10.366;2023-07-29T01:11:41;1.88;;;1.77;;
14789;SDS011;7486;51.010;10.366;2023-07-29T01:14:39;2.10;;;2.00;;
14789;SDS011;7486;51.010;10.366;2023-07-29T01:17:33;2.92;;;2.15;;
14789;SDS011;7486;51.010;10.366;2023-07-29T01:20:24;1.90;;;1.80;;
14789;SDS011;7486;51.010;10.366;2023-07-29T01:23:11;2.38;;;2.20;;
14789;SDS011;7486;51.010;10.366;2023-07-29T01:25:56;2.05;;;1.90;;
14789;SDS011;7486;51.010;10.366;2023-07-29T01:28:42;2.25;;;1.90;;
14789;SDS011;7486;51.010;10.366;2023-07-29T01:31:31;2.40;;;1.95;;
14789;SDS011;7486;51.010;10.366;2023-07-29T01:34:29;2.38;;;2.17;;
14789;SDS011;7486;51.010;10.366;2023-07-29T01:37:26;2.17;;;1.95;;
14789;SDS011;7486;51.010;10.366;2023-07-29T01:40:17;2.20;;;2.00;;
14789;SDS011;7486;51.010;10.366;2023-07-29T01:43:03;2.72;;;1.95;;
14789;SDS011;7486;51.010;10.366;2023-07-29T01:45:49;3.63;;;2.30;;
14789;SDS011;7486;51.010;10.366;2023-07-29T01:48:35;2.30;;;2.10;;
14789;SDS011;7486;51.010;10.366;2023-07-29T01:51:20;2.17;;;2.00;;
14789;SDS011;7486;51.010;10.366;2023-07-29T01:54:06;2.40;;;2.20;;
14789;SDS011;7486;51.010;10.366;2023-07-29T01:56:51;2.08;;;1.98;;
14789;SDS011;7486;51.010;10.366;2023-07-29T01:59:37;2.35;;;2.20;;
14789;SDS011;7486;51.010;10.366;2023-07-29T02:02:22;2.35;;;2.22;;
14789;SDS011;7486;51.010;10.366;2023-07-29T02:05:08;2.40;;;2.20;;
14789;SDS011;7486;51.010;10.366;2023-07-29T02:07:53;2.67;;;2.47;;
14789;SDS011;7486;51.010;10.366;2023-07-29T02:10:38;2.60;;;2.40;;
14789;SDS011;7486;51.010;10.366;2023-07-29T02:13:24;2.65;;;2.40;;
14789;SDS011;7486;51.010;10.366;2023-07-29T02:16:09;3.15;;;2.85;;
14789;SDS011;7486;51.010;10.366;2023-07-29T02:18:54;3.50;;;2.47;;
14789;SDS011;7486;51.010;10.366;2023-07-29T02:21:41;2.60;;;2.40;;
14789;SDS011;7486;51.010;10.366;2023-07-29T02:24:26;3.03;;;2.58;;
14789;SDS011;7486;51.010;10.366;2023-07-29T02:27:12;3.25;;;2.45;;
14789;SDS011;7486;51.010;10.366;2023-07-29T02:29:57;2.70;;;2.50;;
14789;SDS011;7486;51.010;10.366;2023-07-29T02:32:43;2.60;;;2.40;;
14789;SDS011;7486;51.010;10.366;2023-07-29T02:35:28;3.08;;;2.30;;
14789;SDS011;7486;51.010;10.366;2023-07-29T02:38:14;2.30;;;2.20;;
14789;SDS011;7486;51.010;10.366;2023-07-29T02:40:59;3.10;;;2.42;;
14789;SDS011;7486;51.010;10.366;2023-07-29T02:43:47;2.00;;;1.90;;
14789;SDS011;7486;51.010;10.366;2023-07-29T02:46:33;2.28;;;2.15;;
14789;SDS011;7486;51.010;10.366;2023-07-29T02:49:19;2.47;;;2.28;;
14789;SDS011;7486;51.010;10.366;2023-07-29T02:52:05;2.42;;;2.10;;
14789;SDS011;7486;51.010;10.366;2023-07-29T02:54:51;2.05;;;1.95;;
14789;SDS011;7486;51.010;10.366;2023-07-29T02:57:36;2.08;;;1.98;;
14789;SDS011;7486;51.010;10.366;2023-07-29T03:00:22;2.30;;;2.10;;
14789;SDS011;7486;51.010;10.366;2023-07-29T03:03:08;2.25;;;2.03;;
14789;SDS011;7486;51.010;10.366;2023-07-29T03:06:01;2.30;;;1.90;;
14789;SDS011;7486;51.010;10.366;2023-07-29T03:08:49;1.98;;;1.80;;
14789;SDS011;7486;51.010;10.366;2023-07-29T03:11:34;2.00;;;1.80;;
14789;SDS011;7486;51.010;10.366;2023-07-29T03:14:20;1.85;;;1.75;;
14789;SDS011;7486;51.010;10.366;2023-07-29T03:17:06;2.00;;;1.90;;
14789;SDS011;7486;51.010;10.366;2023-07-29T03:19:52;1.90;;;1.80;;
14789;SDS011;7486;51.010;10.366;2023-07-29T03:22:37;2.70;;;2.10;;
14789;SDS011;7486;51.010;10.366;2023-07-29T03:25:22;2.10;;;1.90;;
14789;SDS011;7486;51.010;10.366;2023-07-29T03:28:08;2.20;;;1.85;;
14789;SDS011;7486;51.010;10.366;2023-07-29T03:30:54;1.83;;;1.70;;
14789;SDS011;7486;51.010;10.366;2023-07-29T03:33:40;1.80;;;1.70;;
14789;SDS011;7486;51.010;10.366;2023-07-29T03:36:25;1.90;;;1.80;;
14789;SDS011;7486;51.010;10.366;2023-07-29T03:39:10;2.42;;;1.88;;
14789;SDS011;7486;51.010;10.366;2023-07-29T03:41:56;1.85;;;1.75;;
14789;SDS011;7486;51.010;10.366;2023-07-29T03:44:41;1.73;;;1.63;;
14789;SDS011;7486;51.010;10.366;2023-07-29T03:47:27;1.60;;;1.50;;
14789;SDS011;7486;51.010;10.366;2023-07-29T03:50:14;2.13;;;1.95;;
14789;SDS011;7486;51.010;10.366;2023-07-29T03:52:59;2.03;;;1.60;;
14789;SDS011;7486;51.010;10.366;2023-07-29T03:55:45;1.65;;;1.50;;
14789;SDS011;7486;51.010;10.366;2023-07-29T03:58:30;1.58;;;1.48;;
14789;SDS011;7486;51.010;10.366;2023-07-29T04:01:16;2.33;;;1.63;;
14789;SDS011;7486;51.010;10.366;2023-07-29T04:04:02;1.63;;;1.50;;
14789;SDS011;7486;51.010;10.366;2023-07-29T04:06:48;3.00;;;1.70;;
14789;SDS011;7486;51.010;10.366;2023-07-29T04:09:33;1.63;;;1.10;;
14789;SDS011;7486;51.010;10.366;2023-07-29T04:12:19;1.63;;;1.52;;
14789;SDS011;7486;51.010;10.366;2023-07-29T04:15:05;1.50;;;1.40;;
14789;SDS011;7486;51.010;10.366;2023-07-29T04:17:51;2.55;;;1.35;;
14789;SDS011;7486;51.010;10.366;2023-07-29T04:20:37;1.25;;;1.23;;
14789;SDS011;7486;51.010;10.366;2023-07-29T04:23:22;1.50;;;1.40;;
14789;SDS011;7486;51.010;10.366;2023-07-29T04:26:08;1.52;;;1.42;;
14789;SDS011;7486;51.010;10.366;2023-07-29T04:28:54;2.20;;;1.67;;
14789;SDS011;7486;51.010;10.366;2023-07-29T04:31:39;1.27;;;1.25;;
14789;SDS011;7486;51.010;10.366;2023-07-29T04:34:25;1.60;;;1.50;;
14789;SDS011;7486;51.010;10.366;2023-07-29T04:37:11;1.95;;;1.63;;
14789;SDS011;7486;51.010;10.366;2023-07-29T04:39:56;1.60;;;1.50;;
14789;SDS011;7486;51.010;10.366;2023-07-29T04:42:42;1.70;;;1.60;;
14789;SDS011;7486;51.010;10.366;2023-07-29T04:45:28;1.58;;;1.48;;
14789;SDS011;7486;51.010;10.366;2023-07-29T04:48:14;1.85;;;1.70;;
14789;SDS011;7486;51.010;10.366;2023-07-29T04:50:59;1.80;;;1.70;;
14789;SDS011;7486;51.010;10.366;2023-07-29T04:53:45;1.70;;;1.60;;
14789;SDS011;7486;51.010;10.366;2023-07-29T04:56:30;1.48;;;1.38;;
14789;SDS011;7486;51.010;10.366;2023-07-29T04:59:16;1.88;;;1.65;;
14789;SDS011;7486;51.010;10.366;2023-07-29T05:02:02;2.08;;;1.90;;
14789;SDS011;7486;51.010;10.366;2023-07-29T05:04:47;1.88;;;1.60;;
14789;SDS011;7486;51.010;10.366;2023-07-29T05:07:32;1.60;;;1.50;;
14789;SDS011;7486;51.010;10.366;2023-07-29T05:10:18;1.70;;;1.60;;
14789;SDS011;7486;51.010;10.366;2023-07-29T05:13:03;1.73;;;1.30;;
14789;SDS011;7486;51.010;10.366;2023-07-29T05:15:49;1.55;;;1.45;;
14789;SDS011;7486;51.010;10.366;2023-07-29T05:18:35;1.45;;;1.35;;
14789;SDS011;7486;51.010;10.366;2023-07-29T05:21:21;1.60;;;1.50;;
14789;SDS011;7486;51.010;10.366;2023-07-29T05:24:06;1.50;;;1.40;;
14789;SDS011;7486;51.010;10.366;2023-07-29T05:26:52;1.42;;;1.33;;
14789;SDS011;7486;51.010;10.366;2023-07-29T05:29:37;1.50;;;1.40;;
14789;SDS011;7486;51.010;10.366;2023-07-29T05:32:22;1.35;;;1.25;;
14789;SDS011;7486;51.010;10.366;2023-07-29T05:35:08;2.58;;;1.30;;
14789;SDS011;7486;51.010;10.366;2023-07-29T05:37:54;1.40;;;1.30;;
14789;SDS011;7486;51.010;10.366;2023-07-29T05:40:40;1.50;;;1.02;;
14789;SDS011;7486;51.010;10.366;2023-07-29T05:43:25;1.25;;;1.15;;
14789;SDS011;7486;51.010;10.366;2023-07-29T05:46:10;1.42;;;1.20;;
14789;SDS011;7486;51.010;10.366;2023-07-29T05:48:56;1.00;;;1.00;;
14789;SDS011;7486;51.010;10.366;2023-07-29T05:51:41;1.20;;;1.20;;
14789;SDS011;7486;51.010;10.366;2023-07-29T05:54:27;1.40;;;1.30;;
14789;SDS011;7486;51.010;10.366;2023-07-29T05:57:12;1.95;;;1.33;;
14789;SDS011;7486;51.010;10.366;2023-07-29T05:59:57;1.45;;;1.35;;
14789;SDS011;7486;51.010;10.366;2023-07-29T06:02:44;1.50;;;1.40;;
14789;SDS011;7486;51.010;10.366;2023-07-29T06:05:34;1.38;;;1.30;;
14789;SDS011;7486;51.010;10.366;2023-07-29T06:08:20;1.02;;;1.02;;
14789;SDS011;7486;51.010;10.366;2023-07-29T06:11:06;1.45;;;1.35;;
14789;SDS011;7486;51.010;10.366;2023-07-29T06:13:52;1.30;;;1.20;;
14789;SDS011;7486;51.010;10.366;2023-07-29T06:16:38;1.40;;;1.20;;
14789;SDS011;7486;51.010;10.366;2023-07-29T06:19:24;1.50;;;1.13;;
14789;SDS011;7486;51.010;10.366;2023-07-29T06:22:10;1.20;;;1.10;;
14789;SDS011;7486;51.010;10.366;2023-07-29T06:24:55;1.00;;;1.00;;
14789;SDS011;7486;51.010;10.366;2023-07-29T06:27:41;1.10;;;1.00;;
14789;SDS011;7486;51.010;10.366;2023-07-29T06:30:26;1.00;;;0.93;;
14789;SDS011;7486;51.010;10.366;2023-07-29T06:33:12;1.20;;;1.10;;
14789;SDS011;7486;51.010;10.366;2023-07-29T06:35:58;1.20;;;1.10;;
14789;SDS011;7486;51.010;10.366;2023-07-29T06:38:43;2.25;;;1.00;;
14789;SDS011;7486;51.010;10.366;2023-07-29T06:41:29;0.80;;;0.80;;
14789;SDS011;7486;51.010;10.366;2023-07-29T06:44:16;1.00;;;1.00;;
14789;SDS011;7486;51.010;10.366;2023-07-29T06:47:01;0.85;;;0.85;;
14789;SDS011;7486;51.010;10.366;2023-07-29T06:49:47;1.05;;;1.00;;
14789;SDS011;7486;51.010;10.366;2023-07-29T06:52:33;1.23;;;1.13;;
14789;SDS011;7486;51.010;10.366;2023-07-29T06:55:18;1.20;;;1.00;;
14789;SDS011;7486;51.010;10.366;2023-07-29T06:58:04;1.27;;;1.17;;
14789;SDS011;7486;51.010;10.366;2023-07-29T07:00:49;1.20;;;1.10;;
14789;SDS011;7486;51.010;10.366;2023-07-29T07:03:35;1.00;;;1.00;;
14789;SDS011;7486;51.010;10.366;2023-07-29T07:06:21;1.05;;;1.00;;
14789;SDS011;7486;51.010;10.366;2023-07-29T07:09:07;1.23;;;0.90;;
14789;SDS011;7486;51.010;10.366;2023-07-29T07:11:53;0.90;;;0.90;;
14789;SDS011;7486;51.010;10.366;2023-07-29T07:14:38;1.00;;;1.00;;
14789;SDS011;7486;51.010;10.366;2023-07-29T07:17:24;0.90;;;0.90;;
14789;SDS011;7486;51.010;10.366;2023-07-29T07:20:10;1.30;;;1.20;;
14789;SDS011;7486;51.010;10.366;2023-07-29T07:22:55;1.88;;;1.10;;
14789;SDS011;7486;51.010;10.366;2023-07-29T07:25:41;1.58;;;1.05;;
14789;SDS011;7486;51.010;10.366;2023-07-29T07:28:27;1.10;;;1.10;;
14789;SDS011;7486;51.010;10.366;2023-07-29T07:31:12;0.90;;;0.90;;
14789;SDS011;7486;51.010;10.366;2023-07-29T07:33:58;1.30;;;1.20;;
14789;SDS011;7486;51.010;10.366;2023-07-29T07:36:43;1.20;;;1.20;;
14789;SDS011;7486;51.010;10.366;2023-07-29T07:39:29;1.30;;;1.20;;
14789;SDS011;7486;51.010;10.366;2023-07-29T07:42:16;1.10;;;1.10;;
14789;SDS011;7486;51.010;10.366;2023-07-29T07:45:02;2.35;;;1.20;;
14789;SDS011;7486;51.010;10.366;2023-07-29T07:47:47;1.02;;;1.02;;
14789;SDS011;7486;51.010;10.366;2023-07-29T07:50:33;1.27;;;1.17;;
14789;SDS011;7486;51.010;10.366;2023-07-29T07:53:19;1.20;;;1.20;;
14789;SDS011;7486;51.010;10.366;2023-07-29T07:56:04;1.40;;;1.30;;
14789;SDS011;7486;51.010;10.366;2023-07-29T07:58:50;1.40;;;1.23;;
14789;SDS011;7486;51.010;10.366;2023-07-29T08:01:35;1.23;;;1.23;;
14789;SDS011;7486;51.010;10.366;2023-07-29T08:04:22;1.50;;;1.40;;
14789;SDS011;7486;51.010;10.366;2023-07-29T08:07:07;1.40;;;1.30;;
14789;SDS011;7486;51.010;10.366;2023-07-29T08:09:53;1.50;;;1.40;;
14789;SDS011;7486;51.010;10.366;2023-07-29T08:12:38;1.30;;;1.20;;
14789;SDS011;7486;51.010;10.366;2023-07-29T08:15:23;1.85;;;1.35;;
14789;SDS011;7486;51.010;10.366;2023-07-29T08:18:09;1.63;;;1.25;;
14789;SDS011;7486;51.010;10.366;2023-07-29T08:20:55;1.60;;;1.38;;
14789;SDS011;7486;51.010;10.366;2023-07-29T08:23:42;1.40;;;1.30;;
14789;SDS011;7486;51.010;10.366;2023-07-29T08:26:28;1.70;;;1.50;;
14789;SDS011;7486;51.010;10.366;2023-07-29T08:29:13;1.33;;;1.23;;
14789;SDS011;7486;51.010;10.366;2023-07-29T08:31:59;1.88;;;1.52;;
14789;SDS011;7486;51.010;10.366;2023-07-29T08:34:44;1.50;;;1.40;;
14789;SDS011;7486;51.010;10.366;2023-07-29T08:37:30;1.50;;;1.40;;
14789;SDS011;7486;51.010;10.366;2023-07-29T08:40:15;1.42;;;1.33;;
14789;SDS011;7486;51.010;10.366;2023-07-29T08:43:03;2.58;;;1.60;;
14789;SDS011;7486;51.010;10.366;2023-07-29T08:45:49;1.80;;;1.23;;
14789;SDS011;7486;51.010;10.366;2023-07-29T08:48:45;1.77;;;1.45;;
14789;SDS011;7486;51.010;10.366;2023-07-29T08:51:31;1.55;;;1.45;;
14789;SDS011;7486;51.010;10.366;2023-07-29T08:54:16;1.85;;;1.45;;
14789;SDS011;7486;51.010;10.366;2023-07-29T08:57:02;1.50;;;1.40;;
14789;SDS011;7486;51.010;10.366;2023-07-29T08:59:49;1.27;;;1.20;;
14789;SDS011;7486;51.010;10.366;2023-07-29T09:02:34;1.50;;;1.40;;
14789;SDS011;7486;51.010;10.366;2023-07-29T09:05:22;1.38;;;1.27;;
14789;SDS011;7486;51.010;10.366;2023-07-29T09:08:08;1.73;;;1.20;;
14789;SDS011;7486;51.010;10.366;2023-07-29T09:10:54;1.58;;;1.20;;
14789;SDS011;7486;51.010;10.366;2023-07-29T09:13:40;2.33;;;1.20;;
14789;SDS011;7486;51.010;10.366;2023-07-29T09:16:25;1.40;;;1.27;;
14789;SDS011;7486;51.010;10.366;2023-07-29T09:19:11;1.40;;;1.30;;
14789;SDS011;7486;51.010;10.366;2023-07-29T09:21:57;1.65;;;1.45;;
14789;SDS011;7486;51.010;10.366;2023-07-29T09:24:42;1.65;;;1.50;;
14789;SDS011;7486;51.010;10.366;2023-07-29T09:27:29;2.25;;;1.40;;
14789;SDS011;7486;51.010;10.366;2023-07-29T09:30:15;5.97;;;1.60;;
14789;SDS011;7486;51.010;10.366;2023-07-29T09:33:01;1.52;;;1.42;;
14789;SDS011;7486;51.010;10.366;2023-07-29T09:35:47;2.15;;;1.50;;
14789;SDS011;7486;51.010;10.366;2023-07-29T09:38:32;1.58;;;1.48;;
14789;SDS011;7486;51.010;10.366;2023-07-29T09:41:19;1.48;;;1.38;;
14789;SDS011;7486;51.010;10.366;2023-07-29T09:44:07;2.88;;;1.65;;
14789;SDS011;7486;51.010;10.366;2023-07-29T09:46:53;2.08;;;1.45;;
14789;SDS011;7486;51.010;10.366;2023-07-29T09:49:38;1.80;;;1.50;;
14789;SDS011;7486;51.010;10.366;2023-07-29T09:52:24;1.50;;;1.40;;
14789;SDS011;7486;51.010;10.366;2023-07-29T09:55:12;3.38;;;1.63;;
14789;SDS011;7486;51.010;10.366;2023-07-29T09:58:02;1.75;;;1.40;;
14789;SDS011;7486;51.010;10.366;2023-07-29T10:00:47;1.50;;;1.40;;
14789;SDS011;7486;51.010;10.366;2023-07-29T10:03:35;1.50;;;1.40;;
14789;SDS011;7486;51.010;10.366;2023-07-29T10:06:21;1.60;;;1.50;;
14789;SDS011;7486;51.010;10.366;2023-07-29T10:09:07;1.58;;;1.48;;
14789;SDS011;7486;51.010;10.366;2023-07-29T10:11:56;1.75;;;1.55;;
14789;SDS011;7486;51.010;10.366;2023-07-29T10:14:42;1.40;;;1.30;;
14789;SDS011;7486;51.010;10.366;2023-07-29T10:17:29;2.03;;;1.30;;
14789;SDS011;7486;51.010;10.366;2023-07-29T10:20:15;1.20;;;1.17;;
14789;SDS011;7486;51.010;10.366;2023-07-29T10:23:02;1.33;;;1.23;;
14789;SDS011;7486;51.010;10.366;2023-07-29T10:26:02;1.48;;;1.20;;
14789;SDS011;7486;51.010;10.366;2023-07-29T10:28:49;1.60;;;1.30;;
14789;SDS011;7486;51.010;10.366;2023-07-29T10:31:37;1.50;;;1.40;;
14789;SDS011;7486;51.010;10.366;2023-07-29T10:34:25;1.10;;;1.10;;
14789;SDS011;7486;51.010;10.366;2023-07-29T10:37:12;2.10;;;1.30;;
14789;SDS011;7486;51.010;10.366;2023-07-29T10:39:58;1.40;;;1.30;;
14789;SDS011;7486;51.010;10.366;2023-07-29T10:43:03;1.63;;;1.25;;
14789;SDS011;7486;51.010;10.366;2023-07-29T10:45:55;1.27;;;1.17;;
14789;SDS011;7486;51.010;10.366;2023-07-29T10:48:59;1.35;;;1.25;;
14789;SDS011;7486;51.010;10.366;2023-07-29T10:51:47;1.38;;;1.10;;
14789;SDS011;7486;51.010;10.366;2023-07-29T10:54:46;1.00;;;1.00;;
14789;SDS011;7486;51.010;10.366;2023-07-29T10:57:34;1.00;;;1.00;;
14789;SDS011;7486;51.010;10.366;2023-07-29T11:00:21;1.00;;;1.00;;
14789;SDS011;7486;51.010;10.366;2023-07-29T11:03:07;1.70;;;1.05;;
14789;SDS011;7486;51.010;10.366;2023-07-29T11:05:53;1.60;;;1.10;;
14789;SDS011;7486;51.010;10.366;2023-07-29T11:08:39;1.00;;;0.90;;
14789;SDS011;7486;51.010;10.366;2023-07-29T11:11:24;1.27;;;1.20;;
14789;SDS011;7486;51.010;10.366;2023-07-29T11:14:10;1.38;;;1.10;;
14789;SDS011;7486;51.010;10.366;2023-07-29T11:16:55;1.25;;;1.10;;
14789;SDS011;7486;51.010;10.366;2023-07-29T11:19:41;1.10;;;1.00;;
14789;SDS011;7486;51.010;10.366;2023-07-29T11:22:27;1.65;;;1.10;;
14789;SDS011;7486;51.010;10.366;2023-07-29T11:25:16;2.95;;;1.30;;
14789;SDS011;7486;51.010;10.366;2023-07-29T11:28:03;1.30;;;1.20;;
14789;SDS011;7486;51.010;10.366;2023-07-29T11:30:51;1.20;;;1.10;;
14789;SDS011;7486;51.010;10.366;2023-07-29T11:33:38;1.00;;;1.00;;
14789;SDS011;7486;51.010;10.366;2023-07-29T11:36:24;2.13;;;1.27;;
14789;SDS011;7486;51.010;10.366;2023-07-29T11:39:09;1.63;;;1.30;;
14789;SDS011;7486;51.010;10.366;2023-07-29T11:41:55;2.05;;;1.25;;
14789;SDS011;7486;51.010;10.366;2023-07-29T11:44:41;1.60;;;1.20;;
14789;SDS011;7486;51.010;10.366;2023-07-29T11:47:27;1.50;;;1.20;;
14789;SDS011;7486;51.010;10.366;2023-07-29T11:50:13;1.73;;;1.10;;
14789;SDS011;7486;51.010;10.366;2023-07-29T11:53:00;2.08;;;1.15;;
14789;SDS011;7486;51.010;10.366;2023-07-29T11:55:49;1.75;;;1.05;;
14789;SDS011;7486;51.010;10.366;2023-07-29T11:58:37;2.53;;;1.20;;
14789;SDS011;7486;51.010;10.366;2023-07-29T12:01:22;1.25;;;1.20;;
14789;SDS011;7486;51.010;10.366;2023-07-29T12:04:08;1.15;;;1.05;;
14789;SDS011;7486;51.010;10.366;2023-07-29T12:06:54;1.40;;;1.30;;
14789;SDS011;7486;51.010;10.366;2023-07-29T12:09:41;1.10;;;1.10;;
14789;SDS011;7486;51.010;10.366;2023-07-29T12:12:27;1.30;;;1.20;;
14789;SDS011;7486;51.010;10.366;2023-07-29T12:15:13;1.30;;;1.20;;
14789;SDS011;7486;51.010;10.366;2023-07-29T12:18:07;1.25;;;1.15;;
14789;SDS011;7486;51.010;10.366;2023-07-29T12:20:52;1.33;;;1.20;;
14789;SDS011;7486;51.010;10.366;2023-07-29T12:23:38;1.33;;;1.20;;
14789;SDS011;7486;51.010;10.366;2023-07-29T12:26:26;2.78;;;1.20;;
14789;SDS011;7486;51.010;10.366;2023-07-29T12:32:00;1.10;;;1.10;;
14789;SDS011;7486;51.010;10.366;2023-07-29T12:34:48;1.83;;;1.20;;
14789;SDS011;7486;51.010;10.366;2023-07-29T12:37:33;1.42;;;1.30;;
14789;SDS011;7486;51.010;10.366;2023-07-29T12:40:22;1.35;;;1.10;;
14789;SDS011;7486;51.010;10.366;2023-07-29T12:43:10;1.50;;;1.10;;
14789;SDS011;7486;51.010;10.366;2023-07-29T12:45:57;2.20;;;1.20;;
14789;SDS011;7486;51.010;10.366;2023-07-29T12:48:42;1.27;;;1.15;;
14789;SDS011;7486;51.010;10.366;2023-07-29T12:51:28;3.40;;;1.40;;
14789;SDS011;7486;51.010;10.366;2023-07-29T12:54:14;3.58;;;1.25;;
14789;SDS011;7486;51.010;10.366;2023-07-29T12:56:59;2.53;;;1.50;;
14789;SDS011;7486;51.010;10.366;2023-07-29T12:59:45;1.40;;;1.30;;
14789;SDS011;7486;51.010;10.366;2023-07-29T13:02:31;2.92;;;1.98;;
14789;SDS011;7486;51.010;10.366;2023-07-29T13:05:16;5.00;;;1.92;;
14789;SDS011;7486;51.010;10.366;2023-07-29T13:08:02;2.75;;;1.50;;
14789;SDS011;7486;51.010;10.366;2023-07-29T13:10:48;2.20;;;1.08;;
14789;SDS011;7486;51.010;10.366;2023-07-29T13:13:33;2.70;;;1.15;;
14789;SDS011;7486;51.010;10.366;2023-07-29T13:16:19;2.40;;;1.52;;
14789;SDS011;7486;51.010;10.366;2023-07-29T13:19:05;2.95;;;1.50;;
14789;SDS011;7486;51.010;10.366;2023-07-29T13:21:50;2.00;;;1.60;;
14789;SDS011;7486;51.010;10.366;2023-07-29T13:24:36;4.05;;;2.00;;
14789;SDS011;7486;51.010;10.366;2023-07-29T13:27:21;3.50;;;1.73;;
14789;SDS011;7486;51.010;10.366;2023-07-29T13:30:07;3.00;;;1.80;;
14789;SDS011;7486;51.010;10.366;2023-07-29T13:32:53;4.47;;;1.80;;
14789;SDS011;7486;51.010;10.366;2023-07-29T13:35:38;2.65;;;1.70;;
14789;SDS011;7486;51.010;10.366;2023-07-29T13:38:24;2.35;;;1.60;;
14789;SDS011;7486;51.010;10.366;2023-07-29T13:41:10;3.10;;;1.77;;
14789;SDS011;7486;51.010;10.366;2023-07-29T13:43:55;3.55;;;1.90;;
14789;SDS011;7486;51.010;10.366;2023-07-29T13:46:41;3.85;;;1.77;;
14789;SDS011;7486;51.010;10.366;2023-07-29T13:49:26;1.98;;;1.70;;
14789;SDS011;7486;51.010;10.366;2023-07-29T13:52:11;2.38;;;2.00;;
14789;SDS011;7486;51.010;10.366;2023-07-29T13:54:57;1.83;;;1.63;;
14789;SDS011;7486;51.010;10.366;2023-07-29T13:57:42;1.98;;;1.30;;
14789;SDS011;7486;51.010;10.366;2023-07-29T14:00:28;2.65;;;1.60;;
14789;SDS011;7486;51.010;10.366;2023-07-29T14:03:13;2.53;;;1.58;;
14789;SDS011;7486;51.010;10.366;2023-07-29T14:05:59;2.55;;;1.55;;
14789;SDS011;7486;51.010;10.366;2023-07-29T14:08:44;1.50;;;1.40;;
14789;SDS011;7486;51.010;10.366;2023-07-29T14:11:30;1.30;;;1.20;;
14789;SDS011;7486;51.010;10.366;2023-07-29T14:14:15;1.70;;;1.40;;
14789;SDS011;7486;51.010;10.366;2023-07-29T14:17:04;1.52;;;1.30;;
14789;SDS011;7486;51.010;10.366;2023-07-29T14:19:49;2.25;;;1.60;;
14789;SDS011;7486;51.010;10.366;2023-07-29T14:22:35;1.50;;;1.40;;
14789;SDS011;7486;51.010;10.366;2023-07-29T14:25:21;1.60;;;1.50;;
14789;SDS011;7486;51.010;10.366;2023-07-29T14:28:06;1.95;;;1.80;;
14789;SDS011;7486;51.010;10.366;2023-07-29T14:30:52;1.60;;;1.50;;
14789;SDS011;7486;51.010;10.366;2023-07-29T14:33:38;2.42;;;1.70;;
14789;SDS011;7486;51.010;10.366;2023-07-29T14:36:23;1.70;;;1.60;;
14789;SDS011;7486;51.010;10.366;2023-07-29T14:39:12;2.85;;;1.83;;
14789;SDS011;7486;51.010;10.366;2023-07-29T14:41:57;2.00;;;1.90;;
14789;SDS011;7486;51.010;10.366;2023-07-29T14:44:43;1.80;;;1.70;;
14789;SDS011;7486;51.010;10.366;2023-07-29T14:47:28;2.10;;;1.90;;
14789;SDS011;7486;51.010;10.366;2023-07-29T14:50:13;2.20;;;1.85;;
14789;SDS011;7486;51.010;10.366;2023-07-29T14:52:59;1.92;;;1.80;;
14789;SDS011;7486;51.010;10.366;2023-07-29T14:55:45;1.90;;;1.70;;
14789;SDS011;7486;51.010;10.366;2023-07-29T14:58:30;2.75;;;1.60;;
14789;SDS011;7486;51.010;10.366;2023-07-29T15:01:16;2.00;;;1.90;;
14789;SDS011;7486;51.010;10.366;2023-07-29T15:04:01;2.13;;;1.70;;
14789;SDS011;7486;51.010;10.366;2023-07-29T15:06:47;1.80;;;1.70;;
14789;SDS011;7486;51.010;10.366;2023-07-29T15:09:32;2.53;;;1.70;;
14789;SDS011;7486;51.010;10.366;2023-07-29T15:12:18;3.05;;;1.70;;
14789;SDS011;7486;51.010;10.366;2023-07-29T15:15:04;5.07;;;2.40;;
14789;SDS011;7486;51.010;10.366;2023-07-29T15:17:50;1.80;;;1.65;;
14789;SDS011;7486;51.010;10.366;2023-07-29T15:20:35;1.70;;;1.60;;
14789;SDS011;7486;51.010;10.366;2023-07-29T15:23:21;1.85;;;1.75;;
14789;SDS011;7486;51.010;10.366;2023-07-29T15:26:07;2.53;;;1.70;;
14789;SDS011;7486;51.010;10.366;2023-07-29T15:28:52;3.15;;;1.67;;
14789;SDS011;7486;51.010;10.366;2023-07-29T15:31:39;2.95;;;1.60;;
14789;SDS011;7486;51.010;10.366;2023-07-29T15:34:25;1.50;;;1.40;;
14789;SDS011;7486;51.010;10.366;2023-07-29T15:37:10;1.67;;;1.58;;
14789;SDS011;7486;51.010;10.366;2023-07-29T15:39:56;1.48;;;1.30;;
14789;SDS011;7486;51.010;10.366;2023-07-29T15:42:41;1.60;;;1.50;;
14789;SDS011;7486;51.010;10.366;2023-07-29T15:45:27;1.50;;;1.35;;
14789;SDS011;7486;51.010;10.366;2023-07-29T15:48:12;1.75;;;1.40;;
14789;SDS011;7486;51.010;10.366;2023-07-29T15:50:58;1.40;;;1.30;;
14789;SDS011;7486;51.010;10.366;2023-07-29T15:53:43;1.70;;;1.60;;
14789;SDS011;7486;51.010;10.366;2023-07-29T15:56:29;2.17;;;1.40;;
14789;SDS011;7486;51.010;10.366;2023-07-29T15:59:14;1.60;;;1.50;;
14789;SDS011;7486;51.010;10.366;2023-07-29T16:02:00;1.67;;;1.58;;
14789;SDS011;7486;51.010;10.366;2023-07-29T16:04:46;1.73;;;1.58;;
14789;SDS011;7486;51.010;10.366;2023-07-29T16:07:32;1.80;;;1.55;;
14789;SDS011;7486;51.010;10.366;2023-07-29T16:10:17;1.50;;;1.40;;
14789;SDS011;7486;51.010;10.366;2023-07-29T16:13:03;1.80;;;1.70;;
14789;SDS011;7486;51.010;10.366;2023-07-29T16:15:49;2.70;;;2.03;;
14789;SDS011;7486;51.010;10.366;2023-07-29T16:18:35;2.22;;;1.88;;
14789;SDS011;7486;51.010;10.366;2023-07-29T16:21:20;2.50;;;2.10;;
14789;SDS011;7486;51.010;10.366;2023-07-29T16:24:06;2.78;;;2.00;;
14789;SDS011;7486;51.010;10.366;2023-07-29T16:26:51;2.03;;;1.83;;
14789;SDS011;7486;51.010;10.366;2023-07-29T16:29:37;1.77;;;1.67;;
14789;SDS011;7486;51.010;10.366;2023-07-29T16:32:23;2.63;;;1.73;;
14789;SDS011;7486;51.010;10.366;2023-07-29T16:35:08;1.75;;;1.65;;
14789;SDS011;7486;51.010;10.366;2023-07-29T16:37:55;2.00;;;1.85;;
14789;SDS011;7486;51.010;10.366;2023-07-29T16:40:40;2.53;;;1.80;;
14789;SDS011;7486;51.010;10.366;2023-07-29T16:43:41;2.35;;;1.60;;
14789;SDS011;7486;51.010;10.366;2023-07-29T16:46:27;1.77;;;1.67;;